createdAt,value
2022-11-07T00:02:08.116Z,3.98
2022-11-07T00:04:37.018Z,3.96
2022-11-07T00:07:06.235Z,4.00
2022-11-07T00:09:34.512Z,4.06
2022-11-07T00:12:03.246Z,4.06
2022-11-07T00:14:31.148Z,4.04
2022-11-07T00:16:59.076Z,4.03
2022-11-07T00:19:26.990Z,4.03
2022-11-07T00:21:54.821Z,4.03
2022-11-07T00:24:22.671Z,4.00
2022-11-07T00:26:52.173Z,3.98
2022-11-07T00:29:21.291Z,3.92
2022-11-07T00:31:49.601Z,3.85
2022-11-07T00:34:17.489Z,3.91
2022-11-07T00:36:45.485Z,3.94
2022-11-07T00:39:13.385Z,3.94
2022-11-07T00:41:41.397Z,3.94
2022-11-07T00:44:09.279Z,3.98
2022-11-07T00:46:37.243Z,4.04
2022-11-07T00:49:05.127Z,4.07
2022-11-07T00:51:33.017Z,4.09
2022-11-07T00:54:04.333Z,4.08
2022-11-07T00:56:32.217Z,4.08
2022-11-07T00:59:00.921Z,4.08
2022-11-07T01:01:32.766Z,4.08
2022-11-07T01:04:20.613Z,4.07
2022-11-07T01:06:49.035Z,4.05
2022-11-07T01:09:20.896Z,4.01
2022-11-07T01:11:49.622Z,3.97
2022-11-07T01:14:22.024Z,3.93
2022-11-07T01:16:50.897Z,3.91
2022-11-07T01:19:20.381Z,3.89
2022-11-07T01:21:48.917Z,3.90
2022-11-07T01:24:18.162Z,3.88
2022-11-07T01:26:49.556Z,3.88
2022-11-07T01:29:19.662Z,3.90
2022-11-07T01:31:48.038Z,3.91
2022-11-07T01:34:17.693Z,3.93
2022-11-07T01:36:46.647Z,3.94
2022-11-07T01:39:14.678Z,3.92
2022-11-07T01:41:42.921Z,3.91
2022-11-07T01:44:10.712Z,3.90
2022-11-07T01:46:44.861Z,3.91
2022-11-07T01:49:29.696Z,3.93
2022-11-07T01:52:14.401Z,3.89
2022-11-07T01:55:11.732Z,3.87
2022-11-07T01:57:50.614Z,3.85
2022-11-07T02:00:22.165Z,3.88
2022-11-07T02:03:00.842Z,3.90
2022-11-07T02:05:35.133Z,3.94
2022-11-07T02:08:07.757Z,3.91
2022-11-07T02:10:38.209Z,3.90
2022-11-07T02:13:07.362Z,3.90
2022-11-07T02:15:36.601Z,3.92
2022-11-07T02:18:05.491Z,4.16
2022-11-07T02:20:33.355Z,4.30
2022-11-07T02:23:09.235Z,4.29
2022-11-07T02:25:37.773Z,4.30
2022-11-07T02:28:10.100Z,4.27
2022-11-07T02:30:39.046Z,4.27
2022-11-07T02:33:21.882Z,4.32
2022-11-07T02:35:52.302Z,4.32
2022-11-07T02:38:34.813Z,4.36
2022-11-07T02:41:16.797Z,4.38
2022-11-07T02:44:01.407Z,4.37
2022-11-07T02:46:31.962Z,4.32
2022-11-07T02:49:01.714Z,4.31
2022-11-07T02:51:29.898Z,4.28
2022-11-07T02:53:58.034Z,4.25
2022-11-07T02:56:25.960Z,4.27
2022-11-07T02:58:54.527Z,4.26
2022-11-07T03:01:23.029Z,4.23
2022-11-07T03:03:51.507Z,4.30
2022-11-07T03:06:24.033Z,4.27
2022-11-07T03:08:52.376Z,4.32
2022-11-07T03:11:20.406Z,4.35
2022-11-07T03:13:50.240Z,4.34
2022-11-07T03:16:19.548Z,4.34
2022-11-07T03:18:47.411Z,4.28
2022-11-07T03:21:15.385Z,4.28
2022-11-07T03:23:43.450Z,4.27
2022-11-07T03:26:11.342Z,4.26
2022-11-07T03:28:39.455Z,4.26
2022-11-07T03:31:07.411Z,4.21
2022-11-07T03:33:35.260Z,4.16
2022-11-07T03:36:03.486Z,4.15
2022-11-07T03:38:31.550Z,4.18
2022-11-07T03:40:59.473Z,4.20
2022-11-07T03:43:27.430Z,4.21
2022-11-07T03:45:55.269Z,4.22
2022-11-07T03:48:23.174Z,4.16
2022-11-07T03:50:51.083Z,4.17
2022-11-07T03:53:24.838Z,4.20
2022-11-07T03:55:56.038Z,4.21
2022-11-07T03:58:25.260Z,4.20
2022-11-07T04:00:53.207Z,4.16
2022-11-07T04:03:21.027Z,4.16
2022-11-07T04:05:48.915Z,4.17
2022-11-07T04:08:17.661Z,4.14
2022-11-07T04:10:45.509Z,4.13
2022-11-07T04:13:31.934Z,4.18
2022-11-07T04:16:13.571Z,4.14
2022-11-07T04:18:44.843Z,4.13
2022-11-07T04:21:12.706Z,4.18
2022-11-07T04:23:40.549Z,4.23
2022-11-07T04:26:27.297Z,4.22
2022-11-07T04:28:55.214Z,4.21
2022-11-07T04:31:23.408Z,4.20
2022-11-07T04:33:51.862Z,4.16
2022-11-07T04:36:19.772Z,4.16
2022-11-07T04:38:47.637Z,4.22
2022-11-07T04:41:24.063Z,4.23
2022-11-07T04:43:51.939Z,4.29
2022-11-07T04:46:20.220Z,4.36
2022-11-07T04:48:48.857Z,4.37
2022-11-07T04:51:21.292Z,4.36
2022-11-07T04:53:49.197Z,4.36
2022-11-07T04:56:17.446Z,4.43
2022-11-07T04:58:45.297Z,4.52
2022-11-07T05:01:13.188Z,4.62
2022-11-07T05:03:42.209Z,4.60
2022-11-07T05:06:14.603Z,4.67
2022-11-07T05:08:42.414Z,4.65
2022-11-07T05:11:10.249Z,4.72
2022-11-07T05:13:38.164Z,4.77
2022-11-07T05:16:11.813Z,4.84
2022-11-07T05:18:39.690Z,4.89
2022-11-07T05:21:07.645Z,4.93
2022-11-07T05:23:35.489Z,4.92
2022-11-07T05:26:03.521Z,4.97
2022-11-07T05:28:38.687Z,4.92
2022-11-07T05:31:09.017Z,4.98
2022-11-07T05:33:36.886Z,4.98
2022-11-07T05:36:17.676Z,5.08
2022-11-07T05:38:50.262Z,5.15
2022-11-07T05:41:20.989Z,5.19
2022-11-07T05:43:48.979Z,5.22
2022-11-07T05:46:16.857Z,5.21
2022-11-07T05:48:44.774Z,5.21
2022-11-07T05:51:12.626Z,5.28
2022-11-07T05:53:40.554Z,5.32
2022-11-07T05:56:08.832Z,5.36
2022-11-07T05:58:37.140Z,5.39
2022-11-07T06:01:06.817Z,5.40
2022-11-07T06:03:34.714Z,5.37
2022-11-07T06:06:02.534Z,5.41
2022-11-07T06:08:30.411Z,5.43
2022-11-07T06:10:58.272Z,5.41
2022-11-07T06:13:26.252Z,5.35
2022-11-07T06:15:54.173Z,5.39
2022-11-07T06:18:22.138Z,5.46
2022-11-07T06:20:50.136Z,5.51
2022-11-07T06:23:18.622Z,5.52
2022-11-07T06:25:47.756Z,5.51
2022-11-07T06:28:15.680Z,5.50
2022-11-07T06:30:44.083Z,5.47
2022-11-07T06:33:16.337Z,5.50
2022-11-07T06:35:46.049Z,5.48
2022-11-07T06:38:15.322Z,5.51
2022-11-07T06:40:44.578Z,5.54
2022-11-07T06:43:19.505Z,5.56
2022-11-07T06:45:48.302Z,5.52
2022-11-07T06:48:16.214Z,5.55
2022-11-07T06:50:44.137Z,5.60
2022-11-07T06:53:14.518Z,5.67
2022-11-07T06:55:42.813Z,5.71
2022-11-07T06:58:10.829Z,5.71
2022-11-07T07:00:38.815Z,5.71
2022-11-07T07:03:06.823Z,5.69
2022-11-07T07:05:35.050Z,5.65
2022-11-07T07:08:05.329Z,5.65
2022-11-07T07:10:43.647Z,5.69
2022-11-07T07:13:13.858Z,5.73
2022-11-07T07:15:50.981Z,5.78
2022-11-07T07:18:20.404Z,5.81
2022-11-07T07:20:50.673Z,5.85
2022-11-07T07:23:20.780Z,5.92
2022-11-07T07:25:49.400Z,5.96
2022-11-07T07:28:17.403Z,6.04
2022-11-07T07:30:51.392Z,6.15
2022-11-07T07:33:21.037Z,6.26
2022-11-07T07:35:49.050Z,6.43
2022-11-07T07:38:16.959Z,6.62
2022-11-07T07:40:44.787Z,6.80
2022-11-07T07:43:12.851Z,6.99
2022-11-07T07:45:41.204Z,7.16
2022-11-07T07:48:09.258Z,7.23
2022-11-07T07:50:37.144Z,7.40
2022-11-07T07:53:09.047Z,7.51
2022-11-07T07:55:37.393Z,7.60
2022-11-07T07:58:05.366Z,7.67
2022-11-07T08:00:34.011Z,7.71
2022-11-07T08:03:08.465Z,7.76
2022-11-07T08:05:38.477Z,7.83
2022-11-07T08:08:09.544Z,7.96
2022-11-07T08:10:42.345Z,8.00
2022-11-07T08:13:10.564Z,8.04
2022-11-07T08:15:38.504Z,8.12
2022-11-07T08:18:06.571Z,8.20
2022-11-07T08:20:34.426Z,8.23
2022-11-07T08:23:08.647Z,8.27
2022-11-07T08:25:40.926Z,8.32
2022-11-07T08:28:08.826Z,8.31
2022-11-07T08:30:36.788Z,8.22
2022-11-07T08:33:04.926Z,8.22
2022-11-07T08:35:35.754Z,8.19
2022-11-07T08:38:07.669Z,8.21
2022-11-07T08:40:35.623Z,8.22
2022-11-07T08:43:03.506Z,8.29
2022-11-07T08:45:31.449Z,8.31
2022-11-07T08:48:00.349Z,8.42
2022-11-07T08:50:28.395Z,8.65
2022-11-07T08:53:02.235Z,8.81
2022-11-07T08:55:31.160Z,8.80
2022-11-07T08:58:05.693Z,8.86
2022-11-07T09:00:36.015Z,8.94
2022-11-07T09:05:57.504Z,9.09
2022-11-07T09:08:25.729Z,9.16
2022-11-07T09:10:53.572Z,9.23
2022-11-07T09:13:21.486Z,9.32
2022-11-07T09:15:51.676Z,9.30
2022-11-07T09:18:19.982Z,9.27
2022-11-07T09:20:47.940Z,9.35
2022-11-07T09:23:16.153Z,9.35
2022-11-07T09:25:45.333Z,9.32
2022-11-07T09:28:14.157Z,9.36
2022-11-07T09:30:42.229Z,9.39
2022-11-07T09:33:10.185Z,9.44
2022-11-07T09:35:38.105Z,9.50
2022-11-07T09:38:06.022Z,9.53
2022-11-07T09:41:00.166Z,9.52
2022-11-07T09:43:56.493Z,9.48
2022-11-07T09:46:57.550Z,9.48
2022-11-07T09:49:52.302Z,9.48
2022-11-07T09:52:48.365Z,9.40
2022-11-07T09:55:36.573Z,9.48
2022-11-07T09:58:30.318Z,9.48
2022-11-07T10:01:03.738Z,9.61
2022-11-07T10:03:36.612Z,9.66
2022-11-07T10:06:25.837Z,9.67
2022-11-07T10:09:12.198Z,9.77
2022-11-07T10:12:06.157Z,9.81
2022-11-07T10:15:01.238Z,9.91
2022-11-07T10:17:45.423Z,9.95
2022-11-07T10:20:41.334Z,10.05
2022-11-07T10:23:44.222Z,10.14
2022-11-07T10:26:17.201Z,10.22
2022-11-07T10:29:00.526Z,10.24
2022-11-07T10:31:41.242Z,10.32
2022-11-07T10:34:23.096Z,10.38
2022-11-07T10:36:51.307Z,10.34
2022-11-07T10:39:19.995Z,10.30
2022-11-07T10:42:09.541Z,10.39
2022-11-07T10:44:40.369Z,10.43
2022-11-07T10:47:24.741Z,10.47
2022-11-07T10:50:03.375Z,10.48
2022-11-07T10:52:31.302Z,10.60
2022-11-07T10:55:15.358Z,10.67
2022-11-07T10:57:50.617Z,10.76
2022-11-07T11:00:35.846Z,10.87
2022-11-07T11:03:16.190Z,10.98
2022-11-07T11:05:46.286Z,11.11
2022-11-07T11:08:17.782Z,11.14
2022-11-07T11:10:47.936Z,11.09
2022-11-07T11:13:34.199Z,11.15
2022-11-07T11:16:30.706Z,11.15
2022-11-07T11:19:01.258Z,11.23
2022-11-07T11:21:41.712Z,11.31
2022-11-07T11:24:37.504Z,11.43
2022-11-07T11:27:21.735Z,11.52
2022-11-07T11:30:06.906Z,11.59
2022-11-07T11:32:56.905Z,11.61
2022-11-07T11:35:49.365Z,11.59
2022-11-07T11:38:31.024Z,11.56
2022-11-07T11:41:47.087Z,11.56
2022-11-07T11:44:41.412Z,11.52
2022-11-07T11:47:34.096Z,11.50
2022-11-07T11:50:18.318Z,11.53
2022-11-07T11:52:46.651Z,11.55
2022-11-07T11:55:19.083Z,11.62
2022-11-07T11:58:24.277Z,11.68
2022-11-07T12:01:10.485Z,12.07
2022-11-07T12:04:09.697Z,12.30
2022-11-07T12:06:45.473Z,12.40
2022-11-07T12:09:40.898Z,12.46
2022-11-07T12:12:28.088Z,12.38
2022-11-07T12:15:44.401Z,12.31
2022-11-07T12:18:18.555Z,12.33
2022-11-07T12:21:20.877Z,12.50
2022-11-07T12:24:32.557Z,12.54
2022-11-07T12:27:03.389Z,12.59
2022-11-07T12:30:14.905Z,12.64
2022-11-07T12:33:19.644Z,12.52
2022-11-07T12:35:55.838Z,12.38
2022-11-07T12:38:46.300Z,12.07
2022-11-07T12:41:45.126Z,12.02
2022-11-07T12:44:35.165Z,11.98
2022-11-07T12:47:18.435Z,11.97
2022-11-07T12:50:26.035Z,11.89
2022-11-07T12:53:25.278Z,11.87
2022-11-07T12:56:03.932Z,11.93
2022-11-07T12:58:35.494Z,12.00
2022-11-07T13:01:05.397Z,12.01
2022-11-07T13:03:39.581Z,12.01
2022-11-07T13:06:28.161Z,12.03
2022-11-07T13:09:11.332Z,12.00
2022-11-07T13:11:44.498Z,11.94
2022-11-07T13:14:36.874Z,11.92
2022-11-07T13:17:07.819Z,11.86
2022-11-07T13:19:40.630Z,11.85
2022-11-07T13:22:22.469Z,11.83
2022-11-07T13:25:17.289Z,11.77
2022-11-07T13:28:01.408Z,11.73
2022-11-07T13:30:40.230Z,11.72
2022-11-07T13:33:29.431Z,11.75
2022-11-07T13:36:12.333Z,11.71
2022-11-07T13:38:52.228Z,11.70
2022-11-07T13:41:20.748Z,11.72
2022-11-07T13:44:06.371Z,11.73
2022-11-07T13:46:45.300Z,11.71
2022-11-07T13:49:32.163Z,11.74
2022-11-07T13:52:08.927Z,11.74
2022-11-07T13:55:06.579Z,11.75
2022-11-07T13:57:41.068Z,11.74
2022-11-07T14:00:15.882Z,11.75
2022-11-07T14:02:56.339Z,11.76
2022-11-07T14:05:28.095Z,11.79
2022-11-07T14:08:04.224Z,11.78
2022-11-07T14:10:48.292Z,11.77
2022-11-07T14:13:33.172Z,11.74
2022-11-07T14:16:23.005Z,11.71
2022-11-07T14:18:57.972Z,11.67
2022-11-07T14:21:30.438Z,11.60
2022-11-07T14:23:58.883Z,11.61
2022-11-07T14:26:33.372Z,11.59
2022-11-07T14:29:02.980Z,11.56
2022-11-07T14:31:36.097Z,11.58
2022-11-07T14:34:18.310Z,11.61
2022-11-07T14:37:06.779Z,11.62
2022-11-07T14:39:34.659Z,11.66
2022-11-07T14:42:03.705Z,11.69
2022-11-07T14:44:53.893Z,11.73
2022-11-07T14:47:32.825Z,11.74
2022-11-07T14:50:02.563Z,11.73
2022-11-07T14:52:48.455Z,11.72
2022-11-07T14:55:27.500Z,11.66
2022-11-07T14:57:55.797Z,11.61
2022-11-07T15:00:23.851Z,11.54
2022-11-07T15:02:55.993Z,11.47
2022-11-07T15:05:28.615Z,11.37
2022-11-07T15:07:59.588Z,11.31
2022-11-07T15:10:38.811Z,11.24
2022-11-07T15:13:25.006Z,11.14
2022-11-07T15:16:21.840Z,11.08
2022-11-07T15:18:58.844Z,11.03
2022-11-07T15:21:56.087Z,11.03
2022-11-07T15:24:46.771Z,10.97
2022-11-07T15:27:28.306Z,10.92
2022-11-07T15:30:00.351Z,10.84
2022-11-07T15:32:50.781Z,10.79
2022-11-07T15:38:20.746Z,10.65
2022-11-07T15:40:49.483Z,10.62
2022-11-07T15:43:18.469Z,10.58
2022-11-07T15:45:52.249Z,10.51
2022-11-07T15:48:23.696Z,10.47
2022-11-07T15:50:51.805Z,10.43
2022-11-07T15:53:28.512Z,10.38
2022-11-07T15:56:00.121Z,10.34
2022-11-07T15:58:30.037Z,10.31
2022-11-07T16:01:01.376Z,10.26
2022-11-07T16:03:29.318Z,10.22
2022-11-07T16:06:01.555Z,10.17
2022-11-07T16:08:30.440Z,10.12
2022-11-07T16:11:02.338Z,10.08
2022-11-07T16:13:30.238Z,10.02
2022-11-07T16:16:01.882Z,10.01
2022-11-07T16:18:38.095Z,9.97
2022-11-07T16:21:06.344Z,9.95
2022-11-07T16:23:34.401Z,9.91
2022-11-07T16:26:02.369Z,9.87
2022-11-07T16:28:34.125Z,9.84
2022-11-07T16:31:02.730Z,9.81
2022-11-07T16:33:31.061Z,9.81
2022-11-07T16:36:02.882Z,9.79
2022-11-07T16:38:35.360Z,9.76
2022-11-07T16:41:03.745Z,9.69
2022-11-07T16:43:34.991Z,9.71
2022-11-07T16:46:05.345Z,9.70
2022-11-07T16:48:37.232Z,9.67
2022-11-07T16:51:05.268Z,9.64
2022-11-07T16:53:33.372Z,9.60
2022-11-07T16:56:03.648Z,9.68
2022-11-07T16:58:35.324Z,9.57
2022-11-07T17:01:06.256Z,9.51
2022-11-07T17:03:34.314Z,9.48
2022-11-07T17:06:04.013Z,9.51
2022-11-07T17:08:41.140Z,9.48
2022-11-07T17:11:14.334Z,9.46
2022-11-07T17:13:42.803Z,9.43
2022-11-07T17:16:21.606Z,9.48
2022-11-07T17:18:51.508Z,9.52
2022-11-07T17:21:29.011Z,9.64
2022-11-07T17:24:00.252Z,9.75
2022-11-07T17:26:33.838Z,9.81
2022-11-07T17:29:04.433Z,9.90
2022-11-07T17:31:32.628Z,9.99
2022-11-07T17:34:00.673Z,10.08
2022-11-07T17:36:36.725Z,10.15
2022-11-07T17:39:11.505Z,10.20
2022-11-07T17:41:40.900Z,10.26
2022-11-07T17:44:09.551Z,10.33
2022-11-07T17:46:44.841Z,10.39
2022-11-07T17:49:17.812Z,10.44
2022-11-07T17:51:45.744Z,10.48
2022-11-07T17:54:15.732Z,10.51
2022-11-07T17:56:43.696Z,10.52
2022-11-07T17:59:17.942Z,10.55
2022-11-07T18:01:46.065Z,10.55
2022-11-07T18:04:14.299Z,10.58
2022-11-07T18:06:43.517Z,10.62
2022-11-07T18:09:16.166Z,10.64
2022-11-07T18:11:44.916Z,10.65
2022-11-07T18:14:14.163Z,10.68
2022-11-07T18:16:42.199Z,10.70
2022-11-07T18:19:10.427Z,10.73
2022-11-07T18:21:38.973Z,10.75
2022-11-07T18:24:07.306Z,10.76
2022-11-07T18:26:36.908Z,10.76
2022-11-07T18:29:10.425Z,10.76
2022-11-07T18:31:40.545Z,10.80
2022-11-07T18:34:13.164Z,10.81
2022-11-07T18:36:44.448Z,10.84
2022-11-07T18:39:18.640Z,10.85
2022-11-07T18:41:46.557Z,10.85
2022-11-07T18:44:15.196Z,10.85
2022-11-07T18:46:43.776Z,10.87
2022-11-07T18:49:14.118Z,10.87
2022-11-07T18:51:43.822Z,10.89
2022-11-07T18:54:15.882Z,10.90
2022-11-07T18:56:43.898Z,10.89
2022-11-07T18:59:11.875Z,10.90
2022-11-07T19:01:41.979Z,10.90
2022-11-07T19:04:11.428Z,10.92
2022-11-07T19:06:56.641Z,10.91
2022-11-07T19:09:33.693Z,10.92
2022-11-07T19:12:02.076Z,10.93
2022-11-07T19:14:31.276Z,10.93
2022-11-07T19:16:59.308Z,10.92
2022-11-07T19:19:27.289Z,10.91
2022-11-07T19:21:55.291Z,10.91
2022-11-07T19:24:23.156Z,10.91
2022-11-07T19:26:51.166Z,10.90
2022-11-07T19:29:19.135Z,10.89
2022-11-07T19:31:47.152Z,10.88
2022-11-07T19:34:16.801Z,10.88
2022-11-07T19:36:44.885Z,10.87
2022-11-07T19:39:12.738Z,10.88
2022-11-07T19:41:40.647Z,10.88
2022-11-07T19:44:08.544Z,10.88
2022-11-07T19:46:36.562Z,10.87
2022-11-07T19:49:04.430Z,10.90
2022-11-07T19:51:32.395Z,10.91
2022-11-07T19:54:00.918Z,10.92
2022-11-07T19:56:32.410Z,10.92
2022-11-07T19:59:03.359Z,10.92
2022-11-07T20:01:34.236Z,10.92
2022-11-07T20:04:02.781Z,10.91
2022-11-07T20:06:37.460Z,10.92
2022-11-07T20:09:08.544Z,10.94
2022-11-07T20:11:37.032Z,10.95
2022-11-07T20:14:05.815Z,10.95
2022-11-07T20:16:36.848Z,10.95
2022-11-07T20:19:05.476Z,10.97
2022-11-07T20:21:34.496Z,10.97
2022-11-07T20:24:03.252Z,10.99
2022-11-07T20:26:32.277Z,10.98
2022-11-07T20:29:00.306Z,11.00
2022-11-07T20:31:33.206Z,11.01
2022-11-07T20:34:02.384Z,11.02
2022-11-07T20:36:31.364Z,11.02
2022-11-07T20:39:02.115Z,11.01
2022-11-07T20:41:30.223Z,11.00
2022-11-07T20:44:05.815Z,11.00
2022-11-07T20:46:38.088Z,10.99
2022-11-07T20:49:10.902Z,10.99
2022-11-07T20:51:39.998Z,11.00
2022-11-07T20:54:13.889Z,10.98
2022-11-07T20:56:43.539Z,10.95
2022-11-07T20:59:12.670Z,10.94
2022-11-07T21:01:40.664Z,10.98
2022-11-07T21:04:13.907Z,10.93
2022-11-07T21:06:41.990Z,10.87
2022-11-07T21:09:10.922Z,10.82
2022-11-07T21:11:39.812Z,10.84
2022-11-07T21:14:08.002Z,10.85
2022-11-07T21:16:36.213Z,10.86
2022-11-07T21:19:05.286Z,10.87
2022-11-07T21:21:33.607Z,10.86
2022-11-07T21:24:01.986Z,10.87
2022-11-07T21:26:38.793Z,10.88
2022-11-07T21:29:08.807Z,10.88
2022-11-07T21:31:38.988Z,10.92
2022-11-07T21:34:09.201Z,10.93
2022-11-07T21:36:37.489Z,10.93
2022-11-07T21:39:07.396Z,10.93
2022-11-07T21:41:36.668Z,10.93
2022-11-07T21:44:04.937Z,10.94
2022-11-07T21:46:34.443Z,10.90
2022-11-07T21:49:04.218Z,10.94
2022-11-07T21:51:34.617Z,10.96
2022-11-07T21:54:04.745Z,10.96
2022-11-07T21:56:39.294Z,10.97
2022-11-07T21:59:11.168Z,11.00
2022-11-07T22:01:40.563Z,11.02
2022-11-07T22:04:12.984Z,11.03
2022-11-07T22:06:45.395Z,11.02
2022-11-07T22:09:16.890Z,11.03
2022-11-07T22:11:44.998Z,11.03
2022-11-07T22:14:19.672Z,11.05
2022-11-07T22:16:49.097Z,11.05
2022-11-07T22:19:18.884Z,11.03
2022-11-07T22:21:48.555Z,11.02
2022-11-07T22:24:16.414Z,11.01
2022-11-07T22:26:44.286Z,11.01
2022-11-07T22:29:12.275Z,11.01
2022-11-07T22:31:40.161Z,11.02
2022-11-07T22:34:08.199Z,11.04
2022-11-07T22:36:36.107Z,11.01
2022-11-07T22:39:04.482Z,10.98
2022-11-07T22:41:32.349Z,10.99
2022-11-07T22:44:00.226Z,10.99
2022-11-07T22:46:30.710Z,10.97
2022-11-07T22:49:00.136Z,10.97
2022-11-07T22:51:32.278Z,10.97
2022-11-07T22:54:06.830Z,10.99
2022-11-07T22:56:36.477Z,10.97
2022-11-07T22:59:06.045Z,10.94
2022-11-07T23:01:38.456Z,10.92
2022-11-07T23:04:08.325Z,10.85
2022-11-07T23:06:36.173Z,10.86
2022-11-07T23:09:04.206Z,10.86
2022-11-07T23:11:51.066Z,10.84
2022-11-07T23:14:21.319Z,10.81
2022-11-07T23:16:52.939Z,10.78
2022-11-07T23:19:24.561Z,10.77
2022-11-07T23:21:55.087Z,10.74
2022-11-07T23:24:23.581Z,10.71
2022-11-07T23:26:51.566Z,10.67
2022-11-07T23:29:23.956Z,10.62
2022-11-07T23:31:53.024Z,10.57
2022-11-07T23:34:22.614Z,10.53
2022-11-07T23:36:52.173Z,10.52
2022-11-07T23:39:23.010Z,10.50
2022-11-07T23:41:50.917Z,10.46
2022-11-07T23:44:18.793Z,10.45
2022-11-07T23:47:06.272Z,10.46
2022-11-07T23:49:57.038Z,10.44
2022-11-07T23:52:24.923Z,10.37
2022-11-07T23:55:11.648Z,10.34
2022-11-07T23:58:05.761Z,10.31
